createdAt,value
2022-09-20T00:02:27.952Z,101129.41
2022-09-20T00:04:59.240Z,101114.44
2022-09-20T00:07:31.107Z,101098.59
2022-09-20T00:10:02.399Z,101112.69
2022-09-20T00:12:33.682Z,101126.78
2022-09-20T00:15:05.833Z,101109.16
2022-09-20T00:17:37.125Z,101111.78
2022-09-20T00:20:08.597Z,101122.38
2022-09-20T00:22:39.950Z,101121.47
2022-09-20T00:25:11.206Z,101127.63
2022-09-20T00:27:42.697Z,101124.97
2022-09-20T00:30:14.170Z,101139.97
2022-09-20T00:32:45.453Z,101143.47
2022-09-20T00:35:16.778Z,101111.75
2022-09-20T00:37:48.040Z,101130.25
2022-09-20T00:40:22.221Z,101130.22
2022-09-20T00:42:53.843Z,101133.75
2022-09-20T00:45:30.124Z,101127.59
2022-09-20T00:48:13.237Z,101128.47
2022-09-20T00:50:49.469Z,101135.50
2022-09-20T00:53:27.230Z,101144.31
2022-09-20T00:56:03.695Z,101139.00
2022-09-20T00:58:40.062Z,101121.38
2022-09-20T01:01:11.741Z,101139.88
2022-09-20T01:03:43.737Z,101133.69
2022-09-20T01:06:16.823Z,101137.22
2022-09-20T01:08:51.918Z,101124.88
2022-09-20T01:11:23.424Z,101133.72
2022-09-20T01:13:54.752Z,101130.19
2022-09-20T01:16:30.153Z,101113.44
2022-09-20T01:19:09.681Z,101135.47
2022-09-20T01:21:41.191Z,101131.94
2022-09-20T01:24:28.040Z,101141.63
2022-09-20T01:27:14.371Z,101150.47
2022-09-20T01:29:58.353Z,101137.25
2022-09-20T01:32:41.947Z,101144.31
2022-09-20T01:35:15.912Z,101137.25
2022-09-20T01:38:02.810Z,101146.94
2022-09-20T01:40:54.208Z,101150.47
2022-09-20T01:43:43.620Z,101161.03
2022-09-20T01:46:35.021Z,101149.59
2022-09-20T01:49:24.704Z,101160.16
2022-09-20T01:52:21.391Z,101161.88
2022-09-20T01:55:16.880Z,101152.22
2022-09-20T01:58:11.428Z,101168.94
2022-09-20T02:01:00.976Z,101168.94
2022-09-20T02:03:55.593Z,101163.66
2022-09-20T02:07:04.787Z,101160.16
2022-09-20T02:10:13.629Z,101160.16
2022-09-20T02:12:55.994Z,101168.06
2022-09-20T02:16:05.415Z,101163.66
2022-09-20T02:18:53.327Z,101163.66
2022-09-20T02:21:37.687Z,101180.41
2022-09-20T02:27:40.779Z,101168.06
2022-09-20T02:30:25.295Z,101186.59
2022-09-20T02:33:22.300Z,101183.94
2022-09-20T02:36:11.373Z,101175.13
2022-09-20T02:38:58.977Z,101183.09
2022-09-20T02:41:48.781Z,101187.50
2022-09-20T02:44:28.828Z,101186.66
2022-09-20T02:47:02.862Z,101191.06
2022-09-20T02:49:55.952Z,101199.88
2022-09-20T02:52:42.308Z,101183.16
2022-09-20T02:55:38.331Z,101177.88
2022-09-20T02:58:23.793Z,101187.56
2022-09-20T03:01:07.599Z,101154.09
2022-09-20T03:03:52.963Z,101189.31
2022-09-20T03:06:43.613Z,101187.56
2022-09-20T03:09:47.309Z,101199.03
2022-09-20T03:12:33.367Z,101194.63
2022-09-20T03:15:31.479Z,101201.66
2022-09-20T03:18:16.667Z,101195.50
2022-09-20T03:21:01.592Z,101199.91
2022-09-20T03:23:49.892Z,101203.41
2022-09-20T03:26:49.012Z,101221.03
2022-09-20T03:29:32.945Z,101214.88
2022-09-20T03:32:36.896Z,101213.09
2022-09-20T03:35:45.725Z,101212.22
2022-09-20T03:38:48.725Z,101206.03
2022-09-20T03:41:43.239Z,101201.63
2022-09-20T03:44:37.653Z,101219.25
2022-09-20T03:47:42.751Z,101206.91
2022-09-20T03:50:39.125Z,101215.72
2022-09-20T03:53:48.236Z,101217.47
2022-09-20T03:56:28.445Z,101213.06
2022-09-20T03:59:02.876Z,101219.19
2022-09-20T04:02:27.038Z,101214.75
2022-09-20T04:05:25.701Z,101208.56
2022-09-20T04:08:14.456Z,101223.50
2022-09-20T04:11:03.272Z,101211.16
2022-09-20T04:13:36.351Z,101230.50
2022-09-20T04:16:23.192Z,101207.53
2022-09-20T04:19:29.676Z,101234.84
2022-09-20T04:22:05.529Z,101223.34
2022-09-20T04:24:52.949Z,101233.91
2022-09-20T04:27:46.729Z,101231.22
2022-09-20T04:30:19.545Z,101235.59
2022-09-20T04:33:20.627Z,101240.84
2022-09-20T04:36:31.114Z,101237.31
2022-09-20T04:39:31.737Z,101234.69
2022-09-20T04:42:35.668Z,101232.06
2022-09-20T04:45:17.883Z,101238.22
2022-09-20T04:48:38.138Z,101240.84
2022-09-20T04:51:54.312Z,101248.75
2022-09-20T04:54:44.601Z,101253.13
2022-09-20T04:57:53.927Z,101260.13
2022-09-20T05:00:40.204Z,101253.00
2022-09-20T05:03:17.438Z,101268.84
2022-09-20T05:06:26.466Z,101269.69
2022-09-20T05:09:13.987Z,101274.91
2022-09-20T05:11:55.100Z,101270.47
2022-09-20T05:15:03.273Z,101282.75
2022-09-20T05:17:59.712Z,101271.31
2022-09-20T05:20:46.615Z,101273.91
2022-09-20T05:23:33.273Z,101283.59
2022-09-20T05:26:41.980Z,101285.34
2022-09-20T05:29:36.384Z,101293.25
2022-09-20T05:32:27.674Z,101295.06
2022-09-20T05:35:14.325Z,101296.94
2022-09-20T05:37:55.042Z,101305.84
2022-09-20T05:40:46.269Z,101305.94
2022-09-20T05:43:55.971Z,101309.53
2022-09-20T05:46:43.447Z,101310.47
2022-09-20T05:49:14.872Z,101307.84
2022-09-20T05:51:52.246Z,101313.13
2022-09-20T05:54:42.008Z,101307.88
2022-09-20T05:57:25.461Z,101316.72
2022-09-20T06:00:03.322Z,101302.69
2022-09-20T06:02:43.997Z,101312.38
2022-09-20T06:05:24.405Z,101303.59
2022-09-20T06:08:26.416Z,101303.59
2022-09-20T06:11:22.285Z,101314.22
2022-09-20T06:14:15.127Z,101319.53
2022-09-20T06:17:02.510Z,101305.44
2022-09-20T06:19:42.310Z,101319.63
2022-09-20T06:22:36.566Z,101317.00
2022-09-20T06:25:07.789Z,101335.59
2022-09-20T06:27:47.238Z,101322.41
2022-09-20T06:30:25.056Z,101340.06
2022-09-20T06:33:00.467Z,101332.13
2022-09-20T06:35:40.055Z,101341.84
2022-09-20T06:38:49.126Z,101343.59
2022-09-20T06:41:28.201Z,101347.97
2022-09-20T06:44:01.315Z,101319.75
2022-09-20T06:46:35.648Z,101358.47
2022-09-20T06:49:09.528Z,101353.13
2022-09-20T06:51:41.357Z,101360.16
2022-09-20T06:54:21.124Z,101353.03
2022-09-20T06:56:52.560Z,101369.69
2022-09-20T06:59:23.939Z,101362.56
2022-09-20T07:01:55.312Z,101365.06
2022-09-20T07:04:26.740Z,101364.97
2022-09-20T07:07:04.150Z,101348.06
2022-09-20T07:09:38.708Z,101364.69
2022-09-20T07:12:11.597Z,101378.63
2022-09-20T07:14:44.205Z,101379.41
2022-09-20T07:17:15.549Z,101366.91
2022-09-20T07:19:46.931Z,101365.00
2022-09-20T07:22:18.452Z,101379.81
2022-09-20T07:24:50.016Z,101374.38
2022-09-20T07:27:21.436Z,101384.75
2022-09-20T07:29:52.816Z,101380.97
2022-09-20T07:32:24.201Z,101388.75
2022-09-20T07:34:55.538Z,101391.25
2022-09-20T07:37:26.816Z,101394.63
2022-09-20T07:39:58.193Z,101388.22
2022-09-20T07:42:30.155Z,101399.38
2022-09-20T07:45:02.724Z,101386.66
2022-09-20T07:47:35.422Z,101359.13
2022-09-20T07:50:07.296Z,101400.41
2022-09-20T07:52:38.733Z,101408.38
2022-09-20T07:55:10.118Z,101418.03
2022-09-20T07:57:41.779Z,101405.50
2022-09-20T08:00:13.307Z,101411.44
2022-09-20T08:02:45.400Z,101407.66
2022-09-20T08:05:16.830Z,101401.28
2022-09-20T08:07:48.151Z,101407.94
2022-09-20T08:10:19.498Z,101423.56
2022-09-20T08:15:42.788Z,101422.06
2022-09-20T08:18:14.807Z,101421.78
2022-09-20T08:20:46.172Z,101420.81
2022-09-20T08:23:23.887Z,101428.56
2022-09-20T08:25:56.894Z,101426.59
2022-09-20T08:28:29.632Z,101418.31
2022-09-20T08:31:06.765Z,101429.34
2022-09-20T08:33:38.117Z,101416.78
2022-09-20T08:36:15.345Z,101427.88
2022-09-20T08:41:44.159Z,101422.09
2022-09-20T08:44:25.067Z,101427.19
2022-09-20T08:47:19.142Z,101411.94
2022-09-20T08:49:57.007Z,101420.31
2022-09-20T08:52:36.801Z,101421.50
2022-09-20T08:55:20.688Z,101421.56
2022-09-20T08:57:54.932Z,101426.94
2022-09-20T09:00:31.153Z,101417.88
2022-09-20T09:03:11.648Z,101410.19
2022-09-20T09:05:53.378Z,101430.09
2022-09-20T09:08:38.081Z,101438.56
2022-09-20T09:11:15.129Z,101432.47
2022-09-20T09:14:32.370Z,101431.16
2022-09-20T09:17:03.751Z,101435.72
2022-09-20T09:19:48.878Z,101427.28
2022-09-20T09:22:23.645Z,101431.78
2022-09-20T09:25:23.020Z,101438.56
2022-09-20T09:28:00.344Z,101437.28
2022-09-20T09:30:34.925Z,101434.13
2022-09-20T09:33:26.534Z,101446.94
2022-09-20T09:36:04.163Z,101448.44
2022-09-20T09:38:38.379Z,101446.78
2022-09-20T09:41:20.291Z,101451.38
2022-09-20T09:44:18.853Z,101445.34
2022-09-20T09:46:53.374Z,101444.69
2022-09-20T09:49:25.840Z,101439.00
2022-09-20T09:51:57.115Z,101448.97
2022-09-20T09:54:35.557Z,101446.13
2022-09-20T09:57:28.763Z,101440.88
2022-09-20T10:00:22.287Z,101433.84
2022-09-20T10:03:20.892Z,101440.84
2022-09-20T10:06:33.878Z,101440.88
2022-09-20T10:09:19.417Z,101437.28
2022-09-20T10:12:12.144Z,101437.56
2022-09-20T10:14:58.529Z,101445.28
2022-09-20T10:17:57.444Z,101441.03
2022-09-20T10:20:53.216Z,101448.63
2022-09-20T10:24:03.133Z,101438.66
2022-09-20T10:27:26.009Z,101442.19
2022-09-20T10:30:03.454Z,101447.81
2022-09-20T10:32:45.879Z,101450.91
2022-09-20T10:35:29.164Z,101447.50
2022-09-20T10:38:12.112Z,101445.00
2022-09-20T10:41:33.405Z,101445.38
2022-09-20T10:44:20.024Z,101445.38
2022-09-20T10:47:20.300Z,101449.50
2022-09-20T10:49:51.781Z,101453.03
2022-09-20T10:52:25.915Z,101446.22
2022-09-20T10:55:35.176Z,101450.41
2022-09-20T10:58:30.956Z,101452.06
2022-09-20T11:01:24.310Z,101451.47
2022-09-20T11:04:19.785Z,101446.50
2022-09-20T11:07:03.253Z,101447.88
2022-09-20T11:09:39.744Z,101442.19
2022-09-20T11:12:29.667Z,101459.91
2022-09-20T11:15:15.389Z,101461.09
2022-09-20T11:18:04.581Z,101461.47
2022-09-20T11:20:44.071Z,101450.59
2022-09-20T11:23:25.181Z,101458.94
2022-09-20T11:26:21.128Z,101467.19
2022-09-20T11:28:57.490Z,101468.84
2022-09-20T11:31:50.523Z,101465.91
2022-09-20T11:34:37.381Z,101477.00
2022-09-20T11:37:09.187Z,101470.22
2022-09-20T11:39:54.138Z,101467.88
2022-09-20T11:42:32.987Z,101457.97
2022-09-20T11:45:04.717Z,101468.31
2022-09-20T11:47:54.479Z,101466.75
2022-09-20T11:50:48.917Z,101464.91
2022-09-20T11:53:36.969Z,101464.75
2022-09-20T11:56:30.207Z,101464.22
2022-09-20T11:59:05.777Z,101478.56
2022-09-20T12:01:43.355Z,101472.94
2022-09-20T12:04:32.248Z,101480.88
2022-09-20T12:07:39.598Z,101481.06
2022-09-20T12:10:34.026Z,101485.50
2022-09-20T12:13:22.708Z,101480.84
2022-09-20T12:16:00.853Z,101489.31
2022-09-20T12:18:35.695Z,101483.31
2022-09-20T12:21:16.319Z,101471.91
2022-09-20T12:23:57.072Z,101484.16
2022-09-20T12:26:41.493Z,101489.41
2022-09-20T12:29:24.948Z,101487.66
2022-09-20T12:32:00.449Z,101487.84
2022-09-20T12:34:36.787Z,101483.19
2022-09-20T12:37:10.213Z,101481.84
2022-09-20T12:39:52.273Z,101488.69
2022-09-20T12:42:33.023Z,101476.94
2022-09-20T12:45:15.471Z,101465.78
2022-09-20T12:47:55.746Z,101478.78
2022-09-20T12:50:46.821Z,101486.47
2022-09-20T12:53:18.370Z,101467.31
2022-09-20T12:56:05.007Z,101476.47
2022-09-20T12:58:48.304Z,101471.69
2022-09-20T13:01:22.591Z,101480.03
2022-09-20T13:03:56.939Z,101469.72
2022-09-20T13:06:28.352Z,101476.25
2022-09-20T13:09:13.051Z,101483.63
2022-09-20T13:11:58.854Z,101486.63
2022-09-20T13:14:32.477Z,101476.19
2022-09-20T13:17:13.663Z,101480.19
2022-09-20T13:19:48.823Z,101475.97
2022-09-20T13:22:26.597Z,101476.53
2022-09-20T13:25:05.016Z,101474.78
2022-09-20T13:28:08.749Z,101481.56
2022-09-20T13:30:41.814Z,101473.03
2022-09-20T13:33:24.277Z,101477.00
2022-09-20T13:35:58.581Z,101470.22
2022-09-20T13:38:34.520Z,101486.56
2022-09-20T13:41:09.053Z,101491.38
2022-09-20T13:43:45.396Z,101484.47
2022-09-20T13:46:22.609Z,101480.81
2022-09-20T13:49:13.685Z,101487.88
2022-09-20T13:51:45.074Z,101488.88
2022-09-20T13:54:33.310Z,101480.53
2022-09-20T13:57:13.423Z,101484.44
2022-09-20T13:59:46.540Z,101483.09
2022-09-20T14:02:26.290Z,101494.78
2022-09-20T14:05:01.700Z,101492.44
2022-09-20T14:07:33.853Z,101494.94
2022-09-20T14:10:28.014Z,101496.06
2022-09-20T14:13:02.306Z,101497.81
2022-09-20T14:15:37.554Z,101489.41
2022-09-20T14:18:15.105Z,101487.72
2022-09-20T14:20:47.604Z,101482.28
2022-09-20T14:23:25.537Z,101492.75
2022-09-20T14:26:30.185Z,101488.81
2022-09-20T14:29:29.562Z,101490.53
2022-09-20T14:32:25.057Z,101492.78
2022-09-20T14:34:56.320Z,101493.31
2022-09-20T14:37:32.723Z,101478.78
2022-09-20T14:40:16.799Z,101489.81
2022-09-20T14:43:01.073Z,101487.84
2022-09-20T14:45:35.724Z,101494.78
2022-09-20T14:48:11.310Z,101494.75
2022-09-20T14:51:06.345Z,101486.13
2022-09-20T14:53:38.215Z,101495.13
2022-09-20T14:56:11.826Z,101492.81
2022-09-20T14:59:07.520Z,101499.44
2022-09-20T15:01:41.898Z,101499.59
2022-09-20T15:04:32.942Z,101501.59
2022-09-20T15:07:12.943Z,101502.66
2022-09-20T15:09:44.202Z,101509.66
2022-09-20T15:12:18.390Z,101504.19
2022-09-20T15:14:49.858Z,101513.06
2022-09-20T15:17:21.653Z,101507.56
2022-09-20T15:19:53.709Z,101511.09
2022-09-20T15:22:25.575Z,101515.81
2022-09-20T15:24:56.897Z,101505.50
2022-09-20T15:27:28.574Z,101515.41
2022-09-20T15:29:59.876Z,101506.94
2022-09-20T15:32:31.442Z,101510.59
2022-09-20T15:35:03.258Z,101508.06
2022-09-20T15:37:34.838Z,101485.44
2022-09-20T15:40:07.967Z,101512.84
2022-09-20T15:42:41.582Z,101503.44
2022-09-20T15:45:13.314Z,101510.75
2022-09-20T15:47:44.583Z,101525.09
2022-09-20T15:50:16.106Z,101525.22
2022-09-20T15:52:51.228Z,101525.28
2022-09-20T15:55:22.560Z,101522.78
2022-09-20T15:57:53.834Z,101523.94
2022-09-20T16:00:25.085Z,101525.88
2022-09-20T16:02:56.372Z,101528.84
2022-09-20T16:05:27.641Z,101529.16
2022-09-20T16:07:58.942Z,101525.88
2022-09-20T16:10:31.324Z,101533.28
2022-09-20T16:13:02.676Z,101538.13
2022-09-20T16:15:34.077Z,101541.09
2022-09-20T16:18:24.068Z,101539.63
2022-09-20T16:20:55.322Z,101518.94
2022-09-20T16:23:27.303Z,101546.47
2022-09-20T16:25:58.562Z,101543.09
2022-09-20T16:28:29.953Z,101549.56
2022-09-20T16:31:01.469Z,101552.47
2022-09-20T16:33:34.133Z,101549.97
2022-09-20T16:36:05.957Z,101555.50
2022-09-20T16:38:40.309Z,101526.69
2022-09-20T16:41:11.836Z,101563.88
2022-09-20T16:43:43.527Z,101561.44
2022-09-20T16:46:15.212Z,101545.75
2022-09-20T16:48:47.745Z,101554.59
2022-09-20T16:51:21.030Z,101561.03
2022-09-20T16:53:55.952Z,101571.91
2022-09-20T16:56:35.560Z,101562.38
2022-09-20T16:59:10.652Z,101564.41
2022-09-20T17:01:42.936Z,101569.88
2022-09-20T17:04:17.511Z,101568.41
2022-09-20T17:06:49.914Z,101577.34
2022-09-20T17:09:21.270Z,101576.69
2022-09-20T17:11:53.627Z,101587.50
2022-09-20T17:14:25.644Z,101589.44
2022-09-20T17:16:57.569Z,101590.50
2022-09-20T17:19:28.855Z,101584.44
2022-09-20T17:22:01.417Z,101589.03
2022-09-20T17:24:33.578Z,101597.19
2022-09-20T17:27:05.113Z,101586.78
2022-09-20T17:29:36.378Z,101590.53
2022-09-20T17:32:08.820Z,101608.38
2022-09-20T17:34:40.557Z,101604.16
2022-09-20T17:37:12.180Z,101607.81
2022-09-20T17:39:43.452Z,101604.38
2022-09-20T17:42:14.696Z,101601.03
2022-09-20T17:44:46.131Z,101607.41
2022-09-20T17:47:18.077Z,101624.31
2022-09-20T17:49:49.337Z,101620.91
2022-09-20T17:52:20.675Z,101624.56
2022-09-20T17:54:51.992Z,101631.75
2022-09-20T17:57:23.259Z,101623.97
2022-09-20T17:59:54.545Z,101643.47
2022-09-20T18:02:25.872Z,101643.53
2022-09-20T18:04:57.131Z,101646.28
2022-09-20T18:07:28.404Z,101656.09
2022-09-20T18:09:59.736Z,101635.84
2022-09-20T18:12:31.078Z,101642.09
2022-09-20T18:15:02.495Z,101643.03
2022-09-20T18:17:34.871Z,101654.59
2022-09-20T18:20:06.717Z,101651.94
2022-09-20T18:22:38.582Z,101659.97
2022-09-20T18:25:09.964Z,101652.09
2022-09-20T18:27:42.044Z,101660.97
2022-09-20T18:30:13.391Z,101664.59
2022-09-20T18:32:50.094Z,101662.88
2022-09-20T18:35:21.368Z,101664.69
2022-09-20T18:37:52.827Z,101675.34
2022-09-20T18:40:24.219Z,101671.84
2022-09-20T18:43:02.369Z,101682.47
2022-09-20T18:45:35.658Z,101678.97
2022-09-20T18:48:08.748Z,101688.75
2022-09-20T18:50:40.074Z,101698.47
2022-09-20T18:53:12.558Z,101698.50
2022-09-20T18:55:45.031Z,101686.13
2022-09-20T18:58:20.782Z,101687.03
2022-09-20T19:01:34.458Z,101693.22
2022-09-20T19:04:24.500Z,101704.75
2022-09-20T19:07:17.543Z,101705.63
2022-09-20T19:10:06.520Z,101702.16
2022-09-20T19:12:48.393Z,101699.50
2022-09-20T19:15:34.854Z,101706.56
2022-09-20T19:18:26.967Z,101717.19
2022-09-20T19:21:23.147Z,101709.19
2022-09-20T19:24:33.035Z,101716.25
2022-09-20T19:27:04.612Z,101718.91
2022-09-20T19:29:37.671Z,101717.13
2022-09-20T19:32:17.178Z,101710.06
2022-09-20T19:34:56.026Z,101714.47
2022-09-20T19:37:42.368Z,101727.72
2022-09-20T19:40:22.195Z,101740.06
2022-09-20T19:43:06.452Z,101717.06
2022-09-20T19:46:01.477Z,101727.66
2022-09-20T19:48:38.766Z,101732.94
2022-09-20T19:51:12.317Z,101731.16
2022-09-20T19:53:43.886Z,101723.19
2022-09-20T19:56:25.044Z,101744.41
2022-09-20T19:58:56.594Z,101732.91
2022-09-20T20:01:28.296Z,101734.66
2022-09-20T20:03:59.974Z,101747.91
2022-09-20T20:06:36.682Z,101741.72
2022-09-20T20:09:16.972Z,101739.91
2022-09-20T20:12:22.601Z,101746.09
2022-09-20T20:15:21.216Z,101758.44
2022-09-20T20:18:15.843Z,101740.72
2022-09-20T20:20:49.986Z,101753.06
2022-09-20T20:23:27.957Z,101761.88
2022-09-20T20:26:03.043Z,101759.22
2022-09-20T20:28:34.698Z,101747.66
2022-09-20T20:31:07.083Z,101744.09
2022-09-20T20:33:39.307Z,101763.56
2022-09-20T20:36:12.003Z,101766.19
2022-09-20T20:38:49.401Z,101762.63
2022-09-20T20:41:21.673Z,101769.66
2022-09-20T20:43:57.041Z,101771.41
2022-09-20T20:46:28.344Z,101766.97
2022-09-20T20:48:59.642Z,101784.59
2022-09-20T20:51:32.849Z,101774.81
2022-09-20T20:54:04.651Z,101787.19
2022-09-20T20:56:36.056Z,101782.69
2022-09-20T20:59:07.459Z,101776.47
2022-09-20T21:01:43.742Z,101791.47
2022-09-20T21:04:16.777Z,101802.94
2022-09-20T21:06:48.082Z,101796.69
2022-09-20T21:09:19.360Z,101803.75
2022-09-20T21:11:50.617Z,101809.00
2022-09-20T21:14:21.881Z,101793.91
2022-09-20T21:16:53.638Z,101793.91
2022-09-20T21:19:25.085Z,101801.81
2022-09-20T21:21:56.346Z,101814.19
2022-09-20T21:24:27.589Z,101795.56
2022-09-20T21:26:58.869Z,101795.56
2022-09-20T21:29:30.133Z,101809.69
2022-09-20T21:32:01.602Z,101807.00
2022-09-20T21:34:32.989Z,101803.47
2022-09-20T21:37:04.301Z,101803.41
2022-09-20T21:39:35.556Z,101791.84
2022-09-20T21:42:07.144Z,101807.72
2022-09-20T21:44:43.523Z,101805.94
2022-09-20T21:47:20.024Z,101806.72
2022-09-20T21:49:51.307Z,101810.25
2022-09-20T21:52:23.588Z,101819.00
2022-09-20T21:54:54.902Z,101807.50
2022-09-20T21:57:27.250Z,101803.03
2022-09-20T21:59:58.484Z,101818.94
2022-09-20T22:02:29.776Z,101811.81
2022-09-20T22:05:01.308Z,101814.41
2022-09-20T22:07:34.336Z,101819.72
2022-09-20T22:10:05.950Z,101820.53
2022-09-20T22:12:37.210Z,101829.34
2022-09-20T22:15:08.911Z,101820.47
2022-09-20T22:17:40.176Z,101810.69
2022-09-20T22:20:11.482Z,101825.72
2022-09-20T22:22:42.846Z,101809.75
2022-09-20T22:25:14.176Z,101815.00
2022-09-20T22:27:45.445Z,101828.22
2022-09-20T22:30:16.832Z,101806.94
2022-09-20T22:32:48.083Z,101831.69
2022-09-20T22:35:19.420Z,101820.16
2022-09-20T22:37:50.683Z,101820.13
2022-09-20T22:40:21.967Z,101823.63
2022-09-20T22:42:53.556Z,101832.47
2022-09-20T22:45:25.143Z,101827.13
2022-09-20T22:47:56.406Z,101821.84
2022-09-20T22:50:27.671Z,101819.97
2022-09-20T22:52:58.969Z,101828.75
2022-09-20T22:55:31.370Z,101841.16
2022-09-20T22:58:02.894Z,101843.75
2022-09-20T23:00:34.153Z,101817.06
2022-09-20T23:03:05.421Z,101844.47
2022-09-20T23:05:39.842Z,101841.84
2022-09-20T23:08:11.439Z,101838.31
2022-09-20T23:10:42.691Z,101832.88
2022-09-20T23:13:14.465Z,101825.78
2022-09-20T23:15:45.700Z,101837.22
2022-09-20T23:18:16.962Z,101838.97
2022-09-20T23:20:48.278Z,101839.84
2022-09-20T23:23:23.470Z,101834.44
2022-09-20T23:25:55.123Z,101837.00
2022-09-20T23:28:26.629Z,101853.78
2022-09-20T23:31:03.467Z,101839.56
2022-09-20T23:33:36.282Z,101840.34
2022-09-20T23:36:09.580Z,101848.34
2022-09-20T23:38:41.032Z,101853.63
2022-09-20T23:41:15.879Z,101851.81
2022-09-20T23:43:47.710Z,101842.06
2022-09-20T23:46:24.214Z,101856.13
2022-09-20T23:48:55.648Z,101863.09
2022-09-20T23:51:28.496Z,101863.94
2022-09-20T23:53:59.776Z,101860.41
2022-09-20T23:56:31.938Z,101857.69
2022-09-20T23:59:03.205Z,101872.63
